createdAt,value
2022-10-11T00:01:59.099Z,6.03
2022-10-11T00:04:46.267Z,7.50
2022-10-11T00:07:33.475Z,7.03
2022-10-11T00:10:20.934Z,6.32
2022-10-11T00:13:08.829Z,6.80
2022-10-11T00:15:56.643Z,7.10
2022-10-11T00:18:43.855Z,6.13
2022-10-11T00:21:31.652Z,6.63
2022-10-11T00:24:18.729Z,7.78
2022-10-11T00:27:05.745Z,7.32
2022-10-11T00:29:53.242Z,7.82
2022-10-11T00:32:40.692Z,9.90
2022-10-11T00:35:27.785Z,8.73
2022-10-11T00:38:15.791Z,8.15
2022-10-11T00:41:03.066Z,8.88
2022-10-11T00:44:12.263Z,8.50
2022-10-11T00:47:10.338Z,10.10
2022-10-11T00:50:01.032Z,11.15
2022-10-11T00:52:55.718Z,11.85
2022-10-11T00:55:53.674Z,11.63
2022-10-11T00:58:42.179Z,11.55
2022-10-11T01:01:29.406Z,10.98
2022-10-11T01:04:16.550Z,10.07
2022-10-11T01:07:03.633Z,10.20
2022-10-11T01:09:50.725Z,10.05
2022-10-11T01:12:47.841Z,9.25
2022-10-11T01:15:56.757Z,10.10
2022-10-11T01:19:04.054Z,9.43
2022-10-11T01:22:06.386Z,9.45
2022-10-11T01:25:02.958Z,10.88
2022-10-11T01:28:17.143Z,11.73
2022-10-11T01:31:17.034Z,13.85
2022-10-11T01:34:25.553Z,16.30
2022-10-11T01:37:23.645Z,15.52
2022-10-11T01:40:39.939Z,17.58
2022-10-11T01:43:28.538Z,20.27
2022-10-11T01:46:16.580Z,22.10
2022-10-11T01:49:04.234Z,30.38
2022-10-11T01:51:54.749Z,24.63
2022-10-11T01:55:10.336Z,23.35
2022-10-11T01:58:14.162Z,20.50
2022-10-11T02:01:20.176Z,19.15
2022-10-11T02:04:33.079Z,20.52
2022-10-11T02:07:40.750Z,18.45
2022-10-11T02:10:34.188Z,17.70
2022-10-11T02:13:32.810Z,17.95
2022-10-11T02:16:23.386Z,18.75
2022-10-11T02:19:14.250Z,17.73
2022-10-11T02:22:05.942Z,17.27
2022-10-11T02:24:57.777Z,19.42
2022-10-11T02:27:46.996Z,19.20
2022-10-11T02:30:35.842Z,19.35
2022-10-11T02:33:31.421Z,18.65
2022-10-11T02:36:43.012Z,19.52
2022-10-11T02:39:59.140Z,19.00
2022-10-11T02:42:51.399Z,18.45
2022-10-11T02:45:46.549Z,17.92
2022-10-11T02:48:35.615Z,18.17
2022-10-11T02:51:38.729Z,18.80
2022-10-11T02:54:27.097Z,20.13
2022-10-11T02:57:14.303Z,18.58
2022-10-11T03:00:01.470Z,19.77
2022-10-11T03:02:48.706Z,21.42
2022-10-11T03:05:40.639Z,19.23
2022-10-11T03:08:28.030Z,20.48
2022-10-11T03:11:15.689Z,19.90
2022-10-11T03:14:02.791Z,20.20
2022-10-11T03:16:51.548Z,21.17
2022-10-11T03:19:38.793Z,22.85
2022-10-11T03:22:25.815Z,24.23
2022-10-11T03:25:12.991Z,24.65
2022-10-11T03:28:00.158Z,22.10
2022-10-11T03:30:48.718Z,23.23
2022-10-11T03:33:35.781Z,23.00
2022-10-11T03:36:22.870Z,24.08
2022-10-11T03:39:10.198Z,23.38
2022-10-11T03:41:57.364Z,24.50
2022-10-11T03:44:44.398Z,23.25
2022-10-11T03:47:31.979Z,23.95
2022-10-11T03:50:19.041Z,22.10
2022-10-11T03:53:07.261Z,24.17
2022-10-11T03:55:55.858Z,25.63
2022-10-11T03:58:43.043Z,22.88
2022-10-11T04:01:30.783Z,25.33
2022-10-11T04:04:17.961Z,25.33
2022-10-11T04:07:05.444Z,26.67
2022-10-11T04:09:52.721Z,24.70
2022-10-11T04:12:39.935Z,25.27
2022-10-11T04:15:27.139Z,25.42
2022-10-11T04:18:14.241Z,24.92
2022-10-11T04:21:01.429Z,24.70
2022-10-11T04:23:48.536Z,23.48
2022-10-11T04:26:35.681Z,23.67
2022-10-11T04:29:23.160Z,23.33
2022-10-11T04:32:10.281Z,24.30
2022-10-11T04:34:57.517Z,23.48
2022-10-11T04:37:44.575Z,22.90
2022-10-11T04:40:32.095Z,23.80
2022-10-11T04:43:19.348Z,24.15
2022-10-11T04:46:08.811Z,21.08
2022-10-11T04:48:56.469Z,21.45
2022-10-11T04:51:43.558Z,22.45
2022-10-11T04:54:30.731Z,21.38
2022-10-11T04:57:17.802Z,21.65
2022-10-11T05:00:05.764Z,21.67
2022-10-11T05:02:53.846Z,21.88
2022-10-11T05:05:40.930Z,23.10
2022-10-11T05:08:29.127Z,23.42
2022-10-11T05:11:17.525Z,23.10
2022-10-11T05:14:05.133Z,23.77
2022-10-11T05:16:52.239Z,24.92
2022-10-11T05:19:39.622Z,23.88
2022-10-11T05:22:26.781Z,22.80
2022-10-11T05:25:13.863Z,24.83
2022-10-11T05:28:01.314Z,23.90
2022-10-11T05:30:48.378Z,24.23
2022-10-11T05:33:35.607Z,24.40
2022-10-11T05:36:22.673Z,25.85
2022-10-11T05:39:09.749Z,24.70
2022-10-11T05:41:57.397Z,23.92
2022-10-11T05:44:44.575Z,25.83
2022-10-11T05:47:31.719Z,26.35
2022-10-11T05:50:23.414Z,25.35
2022-10-11T05:53:11.498Z,26.08
2022-10-11T05:55:59.518Z,24.33
2022-10-11T05:58:46.924Z,24.38
2022-10-11T06:01:34.129Z,24.42
2022-10-11T06:04:21.885Z,25.45
2022-10-11T06:07:08.991Z,25.00
2022-10-11T06:09:56.049Z,25.83
2022-10-11T06:12:43.133Z,25.85
2022-10-11T06:15:30.514Z,26.00
2022-10-11T06:18:17.628Z,24.20
2022-10-11T06:21:05.222Z,25.33
2022-10-11T06:23:56.840Z,25.73
2022-10-11T06:26:49.030Z,24.40
2022-10-11T06:29:36.537Z,26.10
2022-10-11T06:32:23.981Z,27.13
2022-10-11T06:35:11.616Z,27.27
2022-10-11T06:37:58.736Z,25.33
2022-10-11T06:40:45.810Z,24.98
2022-10-11T06:43:32.838Z,26.25
2022-10-11T06:46:21.768Z,26.10
2022-10-11T06:49:08.856Z,26.52
2022-10-11T06:51:55.948Z,28.58
2022-10-11T06:54:45.083Z,25.25
2022-10-11T06:57:32.335Z,26.23
2022-10-11T07:00:19.710Z,24.02
2022-10-11T07:03:08.323Z,22.75
2022-10-11T07:06:07.381Z,22.02
2022-10-11T07:08:55.033Z,19.70
2022-10-11T07:11:42.105Z,18.75
2022-10-11T07:14:29.276Z,19.33
2022-10-11T07:17:16.688Z,17.98
2022-10-11T07:20:04.588Z,16.92
2022-10-11T07:22:51.657Z,16.45
2022-10-11T07:25:38.804Z,15.77
2022-10-11T07:28:27.179Z,15.73
2022-10-11T07:31:17.682Z,15.73
2022-10-11T07:34:04.878Z,13.93
2022-10-11T07:36:51.954Z,13.52
2022-10-11T07:39:39.076Z,14.48
2022-10-11T07:42:26.151Z,14.35
2022-10-11T07:45:13.259Z,14.27
2022-10-11T07:48:00.356Z,13.77
2022-10-11T07:50:47.843Z,13.73
2022-10-11T07:53:41.433Z,12.95
2022-10-11T07:56:29.169Z,13.27
2022-10-11T07:59:16.358Z,13.10
2022-10-11T08:02:03.622Z,12.85
2022-10-11T08:04:50.832Z,13.32
2022-10-11T08:07:38.027Z,13.07
2022-10-11T08:10:26.570Z,12.27
2022-10-11T08:13:14.320Z,13.38
2022-10-11T08:16:08.397Z,12.18
2022-10-11T08:18:56.963Z,11.30
2022-10-11T08:21:44.703Z,12.05
2022-10-11T08:24:37.976Z,12.20
2022-10-11T08:27:25.472Z,8.65
2022-10-11T08:30:13.166Z,8.93
2022-10-11T08:33:02.185Z,12.15
2022-10-11T08:35:53.588Z,11.48
2022-10-11T08:38:41.677Z,11.30
2022-10-11T08:41:40.714Z,10.50
2022-10-11T08:45:05.420Z,11.93
2022-10-11T08:47:45.697Z,11.27
2022-10-11T08:50:33.198Z,12.63
2022-10-11T08:53:51.699Z,12.50
2022-10-11T08:56:40.765Z,12.07
2022-10-11T08:59:39.398Z,15.07
2022-10-11T09:02:56.082Z,15.45
2022-10-11T09:06:00.314Z,13.43
2022-10-11T09:09:12.423Z,14.27
2022-10-11T09:12:18.223Z,16.42
2022-10-11T09:15:23.785Z,15.60
2022-10-11T09:18:22.002Z,14.88
2022-10-11T09:21:27.944Z,14.60
2022-10-11T09:24:45.717Z,14.52
2022-10-11T09:28:01.825Z,9.65
2022-10-11T09:30:51.304Z,11.77
2022-10-11T09:33:43.880Z,11.68
2022-10-11T09:36:52.786Z,15.27
2022-10-11T09:39:57.351Z,15.55
2022-10-11T09:42:44.457Z,13.77
2022-10-11T09:45:31.606Z,14.10
2022-10-11T09:48:40.165Z,14.27
2022-10-11T09:51:27.954Z,13.38
2022-10-11T09:54:15.195Z,12.95
2022-10-11T09:57:02.234Z,13.55
2022-10-11T10:00:20.799Z,12.98
2022-10-11T10:03:28.077Z,12.82
2022-10-11T10:06:27.535Z,12.90
2022-10-11T10:09:26.403Z,12.85
2022-10-11T10:12:18.552Z,12.93
2022-10-11T10:15:06.230Z,12.48
2022-10-11T10:18:37.655Z,12.60
2022-10-11T10:21:31.553Z,12.70
2022-10-11T10:24:27.817Z,12.40
2022-10-11T10:27:17.029Z,13.10
2022-10-11T10:30:10.691Z,12.48
2022-10-11T10:33:05.724Z,12.88
2022-10-11T10:35:58.347Z,15.35
2022-10-11T10:38:56.407Z,13.23
2022-10-11T10:41:43.590Z,12.73
2022-10-11T10:44:30.814Z,11.60
2022-10-11T10:47:53.212Z,11.57
2022-10-11T10:50:58.793Z,11.95
2022-10-11T10:53:58.940Z,12.10
2022-10-11T10:56:56.242Z,12.63
2022-10-11T11:00:05.234Z,12.30
2022-10-11T11:03:04.567Z,10.63
2022-10-11T11:06:01.817Z,11.35
2022-10-11T11:08:55.051Z,10.75
2022-10-11T11:11:54.432Z,10.15
2022-10-11T11:15:10.806Z,9.57
2022-10-11T11:18:16.776Z,11.32
2022-10-11T11:21:08.207Z,10.73
2022-10-11T11:24:04.534Z,11.68
2022-10-11T11:27:06.042Z,10.75
2022-10-11T11:30:02.985Z,11.30
2022-10-11T11:33:09.708Z,11.63
2022-10-11T11:36:01.550Z,11.35
2022-10-11T11:39:01.675Z,12.55
2022-10-11T11:42:03.291Z,10.82
2022-10-11T11:44:51.475Z,9.55
2022-10-11T11:47:42.433Z,9.80
2022-10-11T11:53:35.549Z,11.15
2022-10-11T11:57:01.557Z,9.98
2022-10-11T12:00:07.067Z,10.70
2022-10-11T12:03:09.465Z,10.85
2022-10-11T12:06:14.880Z,10.55
2022-10-11T12:09:06.945Z,11.60
2022-10-11T12:11:58.225Z,11.73
2022-10-11T12:15:02.461Z,10.13
2022-10-11T12:17:58.458Z,10.23
2022-10-11T12:20:45.686Z,10.15
2022-10-11T12:23:41.239Z,10.75
2022-10-11T12:26:28.230Z,10.05
2022-10-11T12:29:20.149Z,10.43
2022-10-11T12:32:27.144Z,11.07
2022-10-11T12:35:33.429Z,11.07
2022-10-11T12:38:33.932Z,12.63
2022-10-11T12:41:49.528Z,10.35
2022-10-11T12:44:36.619Z,10.38
2022-10-11T12:47:39.115Z,10.52
2022-10-11T12:50:48.432Z,10.68
2022-10-11T12:54:26.024Z,10.93
2022-10-11T12:57:45.961Z,12.25
2022-10-11T13:00:41.514Z,11.25
2022-10-11T13:03:36.261Z,11.40
2022-10-11T13:06:33.611Z,11.63
2022-10-11T13:09:29.837Z,10.75
2022-10-11T13:12:23.326Z,11.07
2022-10-11T13:15:17.048Z,10.75
2022-10-11T13:18:04.189Z,10.88
2022-10-11T13:20:51.308Z,10.40
2022-10-11T13:23:39.025Z,9.98
2022-10-11T13:26:29.069Z,10.75
2022-10-11T13:29:30.589Z,10.85
2022-10-11T13:32:24.334Z,10.38
2022-10-11T13:35:41.927Z,10.70
2022-10-11T13:38:28.959Z,11.63
2022-10-11T13:41:16.181Z,10.45
2022-10-11T13:44:04.416Z,10.45
2022-10-11T13:46:52.547Z,11.30
2022-10-11T13:49:43.877Z,10.15
2022-10-11T13:52:30.971Z,10.40
2022-10-11T13:55:49.786Z,10.80
2022-10-11T13:58:44.342Z,10.55
2022-10-11T14:01:40.561Z,10.52
2022-10-11T14:04:29.995Z,9.90
2022-10-11T14:07:27.287Z,10.43
2022-10-11T14:10:20.879Z,9.57
2022-10-11T14:13:29.009Z,10.55
2022-10-11T14:16:15.999Z,9.98
2022-10-11T14:19:10.553Z,10.30
2022-10-11T14:21:57.670Z,10.25
2022-10-11T14:24:49.007Z,10.38
2022-10-11T14:27:37.314Z,11.68
2022-10-11T14:30:27.445Z,11.25
2022-10-11T14:33:14.791Z,10.73
2022-10-11T14:36:02.120Z,11.13
2022-10-11T14:38:51.026Z,10.18
2022-10-11T14:41:38.179Z,9.93
2022-10-11T14:44:25.909Z,9.75
2022-10-11T14:47:15.933Z,10.23
2022-10-11T14:50:36.505Z,10.68
2022-10-11T14:53:23.685Z,11.45
2022-10-11T14:56:10.766Z,11.23
2022-10-11T14:58:58.092Z,11.00
2022-10-11T15:01:46.722Z,11.05
2022-10-11T15:04:34.100Z,11.40
2022-10-11T15:07:21.196Z,10.63
2022-10-11T15:10:25.525Z,10.80
2022-10-11T15:13:12.599Z,11.30
2022-10-11T15:16:00.268Z,10.85
2022-10-11T15:18:51.959Z,12.13
2022-10-11T15:21:39.189Z,11.30
2022-10-11T15:24:27.883Z,12.18
2022-10-11T15:27:17.190Z,11.90
2022-10-11T15:30:13.718Z,11.65
2022-10-11T15:33:01.075Z,11.50
2022-10-11T15:35:48.263Z,12.75
2022-10-11T15:38:35.341Z,11.77
2022-10-11T15:41:23.867Z,12.43
2022-10-11T15:44:11.105Z,11.90
2022-10-11T15:46:58.336Z,11.88
2022-10-11T15:49:45.912Z,12.00
2022-10-11T15:52:33.107Z,11.20
2022-10-11T15:55:20.191Z,11.57
2022-10-11T15:58:13.504Z,11.57
2022-10-11T16:01:05.934Z,15.68
2022-10-11T16:03:53.371Z,13.68
2022-10-11T16:06:41.348Z,12.93
2022-10-11T16:09:28.418Z,12.05
2022-10-11T16:12:15.506Z,11.05
2022-10-11T16:15:02.869Z,12.50
2022-10-11T16:17:50.010Z,14.75
2022-10-11T16:20:41.774Z,15.38
2022-10-11T16:23:29.089Z,15.75
2022-10-11T16:26:16.558Z,12.80
2022-10-11T16:29:03.748Z,13.15
2022-10-11T16:31:51.012Z,13.55
2022-10-11T16:34:38.115Z,14.23
2022-10-11T16:37:25.296Z,14.23
2022-10-11T16:40:19.567Z,13.57
2022-10-11T16:43:08.055Z,14.77
2022-10-11T16:45:58.338Z,13.80
2022-10-11T16:48:45.671Z,16.77
2022-10-11T16:51:33.230Z,19.23
2022-10-11T16:54:21.437Z,17.13
2022-10-11T16:57:09.320Z,20.27
2022-10-11T16:59:56.388Z,18.13
2022-10-11T17:02:43.571Z,16.27
2022-10-11T17:05:30.670Z,16.80
2022-10-11T17:08:17.823Z,17.48
2022-10-11T17:11:06.270Z,18.38
2022-10-11T17:13:53.576Z,19.70
2022-10-11T17:16:40.844Z,23.33
2022-10-11T17:19:27.900Z,20.90
2022-10-11T17:22:19.764Z,25.42
2022-10-11T17:25:07.311Z,24.67
2022-10-11T17:27:57.906Z,26.50
2022-10-11T17:30:54.186Z,30.70
2022-10-11T17:33:41.444Z,30.52
2022-10-11T17:36:31.992Z,34.15
2022-10-11T17:39:22.323Z,32.38
2022-10-11T17:42:09.466Z,34.13
2022-10-11T17:44:56.589Z,27.08
2022-10-11T17:47:43.846Z,24.55
2022-10-11T17:50:32.106Z,24.88
2022-10-11T17:53:19.664Z,23.75
2022-10-11T17:56:09.026Z,24.60
2022-10-11T17:58:57.546Z,24.50
2022-10-11T18:01:44.800Z,25.60
2022-10-11T18:04:31.895Z,27.40
2022-10-11T18:07:18.930Z,31.17
2022-10-11T18:10:06.602Z,28.58
2022-10-11T18:12:54.821Z,29.85
2022-10-11T18:15:42.000Z,30.55
2022-10-11T18:18:29.063Z,31.70
2022-10-11T18:21:18.347Z,30.25
2022-10-11T18:24:15.525Z,28.55
2022-10-11T18:27:03.019Z,27.63
2022-10-11T18:29:50.119Z,29.58
2022-10-11T18:32:37.510Z,32.42
2022-10-11T18:35:24.609Z,31.45
2022-10-11T18:38:11.717Z,32.38
2022-10-11T18:41:07.474Z,30.90
2022-10-11T18:43:56.839Z,27.88
2022-10-11T18:46:44.673Z,25.80
2022-10-11T18:49:31.815Z,24.23
2022-10-11T18:52:18.945Z,21.45
2022-10-11T18:55:06.596Z,20.85
2022-10-11T18:57:53.829Z,20.40
2022-10-11T19:00:41.592Z,20.20
2022-10-11T19:03:34.151Z,21.80
2022-10-11T19:06:25.691Z,21.27
2022-10-11T19:09:18.922Z,21.30
2022-10-11T19:12:06.187Z,21.50
2022-10-11T19:14:54.679Z,19.27
2022-10-11T19:17:42.017Z,18.98
2022-10-11T19:20:29.164Z,17.67
2022-10-11T19:23:16.470Z,18.20
2022-10-11T19:26:03.977Z,17.60
2022-10-11T19:29:15.247Z,16.25
2022-10-11T19:32:03.840Z,15.95
2022-10-11T19:34:51.114Z,16.80
2022-10-11T19:37:38.194Z,16.08
2022-10-11T19:40:27.210Z,16.63
2022-10-11T19:43:16.648Z,16.50
2022-10-11T19:46:05.934Z,15.95
2022-10-11T19:48:53.290Z,16.48
2022-10-11T19:51:40.385Z,17.13
2022-10-11T19:54:27.724Z,16.52
2022-10-11T19:57:14.858Z,17.08
2022-10-11T20:00:02.070Z,16.67
2022-10-11T20:02:51.639Z,17.35
2022-10-11T20:05:38.850Z,17.10
2022-10-11T20:08:27.055Z,16.45
2022-10-11T20:11:15.582Z,18.13
2022-10-11T20:14:02.999Z,18.58
2022-10-11T20:16:50.961Z,17.52
2022-10-11T20:19:38.118Z,17.10
2022-10-11T20:22:25.203Z,16.17
2022-10-11T20:25:12.293Z,17.30
2022-10-11T20:27:59.480Z,16.65
2022-10-11T20:30:46.601Z,18.10
2022-10-11T20:33:33.721Z,25.15
2022-10-11T20:36:22.554Z,29.30
2022-10-11T20:39:09.887Z,39.78
2022-10-11T20:41:56.962Z,31.38
2022-10-11T20:44:44.515Z,27.75
2022-10-11T20:47:32.019Z,22.83
2022-10-11T20:50:22.927Z,22.70
2022-10-11T20:53:14.216Z,20.90
2022-10-11T20:56:04.751Z,20.08
2022-10-11T20:58:53.561Z,19.90
2022-10-11T21:01:41.208Z,20.05
2022-10-11T21:04:28.479Z,18.25
2022-10-11T21:07:15.830Z,18.20
2022-10-11T21:10:03.283Z,16.63
2022-10-11T21:12:50.344Z,16.10
2022-10-11T21:15:37.381Z,16.00
2022-10-11T21:18:24.430Z,15.13
2022-10-11T21:21:15.442Z,15.23
2022-10-11T21:24:03.160Z,15.25
2022-10-11T21:26:50.299Z,14.82
2022-10-11T21:29:37.342Z,14.90
2022-10-11T21:32:24.593Z,14.02
2022-10-11T21:35:11.744Z,13.70
2022-10-11T21:37:59.388Z,13.85
2022-10-11T21:40:46.943Z,13.20
2022-10-11T21:43:35.674Z,15.27
2022-10-11T21:46:47.936Z,14.50
2022-10-11T21:49:36.337Z,15.32
2022-10-11T21:52:23.371Z,13.80
2022-10-11T21:55:10.640Z,14.77
2022-10-11T21:57:58.112Z,14.85
2022-10-11T22:00:46.906Z,14.15
2022-10-11T22:03:34.202Z,13.88
2022-10-11T22:06:21.659Z,14.95
2022-10-11T22:09:08.817Z,14.95
2022-10-11T22:11:56.885Z,14.07
2022-10-11T22:14:44.025Z,13.13
2022-10-11T22:17:31.069Z,13.43
2022-10-11T22:20:18.165Z,13.70
2022-10-11T22:23:05.419Z,14.10
2022-10-11T22:25:52.489Z,15.10
2022-10-11T22:28:40.335Z,15.93
2022-10-11T22:31:28.411Z,13.98
2022-10-11T22:34:15.561Z,13.38
2022-10-11T22:37:02.671Z,13.35
2022-10-11T22:39:49.737Z,13.60
2022-10-11T22:42:36.960Z,14.63
2022-10-11T22:45:24.134Z,14.32
2022-10-11T22:48:11.933Z,14.50
2022-10-11T22:50:59.212Z,15.52
2022-10-11T22:53:46.446Z,15.27
2022-10-11T22:56:33.603Z,15.38
2022-10-11T22:59:20.811Z,15.23
2022-10-11T23:02:08.049Z,15.00
2022-10-11T23:04:55.103Z,15.27
2022-10-11T23:07:42.177Z,15.07
2022-10-11T23:10:31.150Z,14.73
2022-10-11T23:13:18.660Z,14.68
2022-10-11T23:16:07.795Z,15.75
2022-10-11T23:18:55.246Z,15.45
2022-10-11T23:21:42.336Z,14.90
2022-10-11T23:24:29.575Z,15.00
2022-10-11T23:27:16.754Z,16.05
2022-10-11T23:30:05.053Z,16.40
2022-10-11T23:32:52.117Z,16.58
2022-10-11T23:35:39.339Z,15.73
2022-10-11T23:38:26.407Z,15.93
2022-10-11T23:41:13.480Z,16.55
2022-10-11T23:44:00.568Z,17.20
2022-10-11T23:46:47.716Z,16.23
2022-10-11T23:49:35.459Z,15.65
2022-10-11T23:52:22.760Z,15.68
2022-10-11T23:55:10.022Z,15.98
2022-10-11T23:57:57.138Z,16.17
